createdAt,value
2023-04-09T00:01:59.117Z,8.31
2023-04-09T00:04:27.326Z,8.26
2023-04-09T00:06:56.874Z,8.25
2023-04-09T00:09:24.985Z,8.20
2023-04-09T00:11:53.098Z,8.20
2023-04-09T00:14:21.365Z,8.13
2023-04-09T00:16:49.510Z,8.13
2023-04-09T00:19:17.850Z,8.08
2023-04-09T00:21:45.944Z,8.11
2023-04-09T00:24:15.551Z,8.11
2023-04-09T00:26:44.098Z,8.08
2023-04-09T00:29:12.129Z,8.05
2023-04-09T00:31:40.178Z,8.04
2023-04-09T00:34:08.376Z,8.01
2023-04-09T00:36:36.712Z,8.01
2023-04-09T00:39:05.039Z,8.01
2023-04-09T00:41:34.687Z,8.00
2023-04-09T00:44:02.818Z,7.93
2023-04-09T00:46:32.587Z,7.95
2023-04-09T00:49:01.053Z,7.88
2023-04-09T00:51:29.749Z,7.89
2023-04-09T00:53:58.121Z,7.83
2023-04-09T00:56:27.365Z,7.79
2023-04-09T00:58:56.963Z,7.83
2023-04-09T01:01:25.204Z,7.83
2023-04-09T01:03:53.581Z,7.86
2023-04-09T01:06:27.981Z,7.88
2023-04-09T01:09:01.145Z,7.85
2023-04-09T01:11:36.726Z,7.86
2023-04-09T01:14:09.970Z,7.88
2023-04-09T01:16:39.127Z,7.91
2023-04-09T01:19:23.646Z,7.91
2023-04-09T01:21:52.234Z,7.91
2023-04-09T01:24:37.791Z,7.89
2023-04-09T01:27:07.405Z,7.88
2023-04-09T01:29:53.314Z,7.86
2023-04-09T01:32:22.141Z,7.88
2023-04-09T01:34:50.471Z,7.90
2023-04-09T01:37:19.610Z,7.86
2023-04-09T01:39:48.361Z,7.87
2023-04-09T01:42:17.263Z,7.85
2023-04-09T01:44:46.644Z,7.81
2023-04-09T01:47:16.941Z,7.76
2023-04-09T01:49:46.099Z,7.75
2023-04-09T01:52:14.566Z,7.74
2023-04-09T01:54:43.962Z,7.74
2023-04-09T01:57:12.210Z,7.75
2023-04-09T01:59:40.492Z,7.73
2023-04-09T02:02:12.046Z,7.71
2023-04-09T02:04:42.137Z,7.68
2023-04-09T02:07:12.114Z,7.63
2023-04-09T02:09:41.158Z,7.62
2023-04-09T02:12:13.705Z,7.66
2023-04-09T02:14:42.588Z,7.62
2023-04-09T02:17:10.816Z,7.67
2023-04-09T02:19:44.853Z,7.60
2023-04-09T02:22:13.472Z,7.58
2023-04-09T02:24:41.817Z,7.56
2023-04-09T02:27:10.076Z,7.56
2023-04-09T02:29:39.684Z,7.53
2023-04-09T02:32:08.001Z,7.55
2023-04-09T02:34:36.063Z,7.46
2023-04-09T02:37:05.966Z,7.48
2023-04-09T02:39:34.302Z,7.47
2023-04-09T02:42:02.431Z,7.40
2023-04-09T02:44:30.715Z,7.39
2023-04-09T02:46:59.343Z,7.33
2023-04-09T02:49:27.849Z,7.36
2023-04-09T02:51:56.207Z,7.39
2023-04-09T02:54:25.683Z,7.40
2023-04-09T02:56:53.824Z,7.38
2023-04-09T02:59:22.130Z,7.37
2023-04-09T03:01:50.847Z,7.43
2023-04-09T03:04:19.568Z,7.43
2023-04-09T03:06:47.998Z,7.43
2023-04-09T03:09:16.220Z,7.46
2023-04-09T03:11:45.926Z,7.43
2023-04-09T03:14:14.540Z,7.45
2023-04-09T03:16:42.614Z,7.41
2023-04-09T03:19:10.853Z,7.42
2023-04-09T03:21:39.023Z,7.42
2023-04-09T03:24:07.837Z,7.42
2023-04-09T03:26:38.063Z,7.43
2023-04-09T03:29:09.556Z,7.42
2023-04-09T03:31:37.624Z,7.44
2023-04-09T03:34:05.892Z,7.44
2023-04-09T03:36:35.029Z,7.46
2023-04-09T03:39:12.104Z,7.50
2023-04-09T03:41:43.803Z,7.53
2023-04-09T03:44:17.464Z,7.51
2023-04-09T03:47:05.946Z,7.54
2023-04-09T03:49:36.460Z,7.55
2023-04-09T03:52:16.488Z,7.57
2023-04-09T03:54:47.762Z,7.53
2023-04-09T03:57:20.930Z,7.58
2023-04-09T03:59:53.439Z,7.59
2023-04-09T04:02:23.715Z,7.60
2023-04-09T04:05:00.286Z,7.61
2023-04-09T04:07:33.887Z,7.55
2023-04-09T04:10:10.976Z,7.57
2023-04-09T04:12:43.536Z,7.58
2023-04-09T04:15:19.995Z,7.50
2023-04-09T04:17:53.567Z,7.54
2023-04-09T04:20:30.549Z,7.54
2023-04-09T04:23:04.485Z,7.45
2023-04-09T04:25:34.194Z,7.43
2023-04-09T04:28:03.222Z,7.43
2023-04-09T04:30:42.244Z,7.38
2023-04-09T04:33:10.437Z,7.43
2023-04-09T04:35:52.501Z,7.39
2023-04-09T04:38:37.825Z,7.40
2023-04-09T04:41:11.846Z,7.43
2023-04-09T04:43:43.566Z,7.40
2023-04-09T04:46:21.806Z,7.41
2023-04-09T04:48:50.748Z,7.37
2023-04-09T04:51:19.426Z,7.37
2023-04-09T04:53:59.732Z,7.26
2023-04-09T04:56:28.823Z,7.22
2023-04-09T04:59:08.786Z,7.22
2023-04-09T05:01:50.860Z,7.14
2023-04-09T05:04:18.881Z,7.08
2023-04-09T05:06:46.973Z,7.05
2023-04-09T05:09:22.229Z,6.96
2023-04-09T05:12:06.628Z,6.94
2023-04-09T05:14:36.475Z,6.96
2023-04-09T05:17:06.430Z,6.93
2023-04-09T05:19:42.788Z,6.94
2023-04-09T05:22:12.930Z,6.89
2023-04-09T05:24:41.263Z,6.94
2023-04-09T05:27:10.152Z,6.91
2023-04-09T05:29:38.262Z,6.92
2023-04-09T05:32:09.908Z,6.91
2023-04-09T05:34:41.148Z,6.91
2023-04-09T05:37:09.711Z,6.93
2023-04-09T05:39:37.781Z,6.91
2023-04-09T05:42:06.006Z,6.94
2023-04-09T05:44:51.125Z,6.95
2023-04-09T05:47:23.264Z,6.98
2023-04-09T05:50:16.524Z,7.01
2023-04-09T05:52:45.009Z,7.03
2023-04-09T05:55:15.640Z,7.06
2023-04-09T05:57:53.336Z,7.11
2023-04-09T06:00:23.604Z,7.14
2023-04-09T06:02:53.516Z,7.23
2023-04-09T06:05:22.217Z,7.25
2023-04-09T06:07:50.765Z,7.28
2023-04-09T06:10:18.996Z,7.35
2023-04-09T06:12:48.998Z,7.38
2023-04-09T06:15:17.241Z,7.46
2023-04-09T06:17:45.432Z,7.55
2023-04-09T06:20:15.233Z,7.61
2023-04-09T06:22:43.733Z,7.72
2023-04-09T06:25:12.005Z,7.84
2023-04-09T06:27:40.458Z,7.90
2023-04-09T06:30:09.679Z,7.96
2023-04-09T06:32:46.789Z,8.01
2023-04-09T06:35:16.990Z,8.11
2023-04-09T06:37:45.633Z,8.10
2023-04-09T06:40:14.082Z,8.18
2023-04-09T06:42:42.092Z,8.12
2023-04-09T06:45:32.612Z,8.20
2023-04-09T06:48:01.193Z,8.24
2023-04-09T06:50:30.836Z,8.24
2023-04-09T06:52:58.954Z,8.22
2023-04-09T06:55:27.950Z,8.24
2023-04-09T06:57:56.080Z,8.22
2023-04-09T07:00:24.531Z,8.28
2023-04-09T07:02:53.617Z,8.29
2023-04-09T07:05:21.753Z,8.40
2023-04-09T07:07:51.600Z,8.38
2023-04-09T07:10:19.858Z,8.43
2023-04-09T07:12:47.956Z,8.48
2023-04-09T07:15:16.320Z,8.48
2023-04-09T07:17:44.482Z,8.55
2023-04-09T07:20:13.116Z,8.62
2023-04-09T07:22:41.749Z,8.63
2023-04-09T07:25:11.766Z,8.72
2023-04-09T07:27:39.846Z,8.68
2023-04-09T07:30:08.731Z,8.79
2023-04-09T07:32:37.968Z,8.84
2023-04-09T07:35:07.669Z,8.89
2023-04-09T07:37:35.759Z,8.95
2023-04-09T07:40:04.392Z,9.05
2023-04-09T07:42:34.042Z,9.09
2023-04-09T07:45:03.566Z,9.16
2023-04-09T07:47:32.053Z,9.22
2023-04-09T07:50:00.435Z,9.28
2023-04-09T07:52:28.507Z,9.32
2023-04-09T07:54:57.588Z,9.33
2023-04-09T07:57:25.976Z,9.34
2023-04-09T07:59:56.376Z,9.40
2023-04-09T08:02:24.855Z,9.42
2023-04-09T08:04:53.256Z,9.47
2023-04-09T08:07:21.402Z,9.50
2023-04-09T08:09:49.712Z,9.49
2023-04-09T08:12:17.822Z,9.51
2023-04-09T08:14:46.139Z,9.56
2023-04-09T08:17:15.842Z,9.65
2023-04-09T08:19:43.842Z,9.68
2023-04-09T08:22:11.974Z,9.77
2023-04-09T08:24:40.416Z,9.80
2023-04-09T08:27:08.774Z,9.84
2023-04-09T08:29:36.788Z,9.89
2023-04-09T08:32:04.770Z,9.98
2023-04-09T08:34:34.507Z,10.02
2023-04-09T08:37:02.883Z,10.06
2023-04-09T08:39:31.255Z,10.08
2023-04-09T08:42:01.904Z,10.17
2023-04-09T08:44:30.714Z,10.18
2023-04-09T08:46:59.718Z,10.30
2023-04-09T08:49:27.886Z,10.43
2023-04-09T08:51:57.697Z,10.51
2023-04-09T08:54:26.942Z,10.55
2023-04-09T08:56:55.011Z,10.60
2023-04-09T08:59:23.606Z,10.62
2023-04-09T09:02:07.839Z,10.65
2023-04-09T09:04:45.214Z,10.71
2023-04-09T09:07:15.640Z,10.72
2023-04-09T09:09:53.923Z,10.72
2023-04-09T09:12:35.613Z,10.68
2023-04-09T09:15:03.978Z,10.68
2023-04-09T09:17:32.512Z,10.70
2023-04-09T09:20:01.358Z,10.65
2023-04-09T09:22:31.268Z,10.65
2023-04-09T09:24:59.342Z,10.68
2023-04-09T09:27:36.791Z,10.67
2023-04-09T09:30:06.150Z,10.63
2023-04-09T09:32:34.576Z,10.66
2023-04-09T09:35:03.705Z,10.71
2023-04-09T09:37:33.567Z,10.75
2023-04-09T09:40:02.217Z,10.74
2023-04-09T09:42:30.475Z,10.73
2023-04-09T09:45:00.368Z,10.83
2023-04-09T09:47:29.636Z,10.77
2023-04-09T09:49:57.843Z,10.86
2023-04-09T09:52:27.151Z,10.93
2023-04-09T09:54:58.947Z,10.94
2023-04-09T09:57:29.841Z,10.97
2023-04-09T10:00:04.164Z,10.98
2023-04-09T10:02:41.990Z,10.97
2023-04-09T10:05:10.651Z,11.06
2023-04-09T10:07:39.256Z,11.08
2023-04-09T10:10:10.410Z,11.05
2023-04-09T10:12:38.882Z,11.09
2023-04-09T10:15:07.574Z,11.08
2023-04-09T10:17:35.742Z,10.98
2023-04-09T10:20:08.897Z,10.96
2023-04-09T10:22:38.011Z,10.91
2023-04-09T10:25:06.781Z,10.94
2023-04-09T10:27:36.700Z,10.92
2023-04-09T10:30:07.768Z,10.82
2023-04-09T10:32:37.084Z,10.82
2023-04-09T10:35:05.466Z,10.82
2023-04-09T10:37:33.504Z,10.81
2023-04-09T10:40:02.300Z,10.94
2023-04-09T10:42:31.898Z,10.89
2023-04-09T10:45:11.284Z,11.03
2023-04-09T10:47:40.682Z,11.07
2023-04-09T10:50:19.006Z,11.07
2023-04-09T10:52:47.912Z,11.12
2023-04-09T10:55:31.797Z,11.09
2023-04-09T10:57:59.965Z,11.14
2023-04-09T11:00:30.284Z,11.11
2023-04-09T11:03:23.303Z,11.19
2023-04-09T11:06:00.254Z,11.22
2023-04-09T11:08:32.386Z,11.23
2023-04-09T11:11:02.084Z,11.28
2023-04-09T11:13:31.186Z,11.28
2023-04-09T11:16:01.651Z,11.29
2023-04-09T11:18:30.486Z,11.35
2023-04-09T11:20:59.572Z,11.17
2023-04-09T11:23:28.086Z,11.20
2023-04-09T11:25:56.624Z,11.05
2023-04-09T11:28:25.207Z,11.05
2023-04-09T11:30:53.239Z,11.01
2023-04-09T11:33:23.648Z,11.02
2023-04-09T11:35:52.290Z,11.06
2023-04-09T11:38:20.532Z,10.97
2023-04-09T11:40:49.540Z,10.98
2023-04-09T11:43:18.407Z,11.01
2023-04-09T11:45:48.354Z,10.95
2023-04-09T11:48:18.432Z,10.86
2023-04-09T11:50:48.440Z,10.87
2023-04-09T11:53:17.412Z,10.81
2023-04-09T11:55:48.248Z,10.73
2023-04-09T11:58:16.752Z,10.70
2023-04-09T12:00:45.481Z,10.64
2023-04-09T12:03:16.584Z,10.63
2023-04-09T12:05:50.645Z,10.59
2023-04-09T12:08:24.309Z,10.68
2023-04-09T12:10:53.963Z,10.64
2023-04-09T12:13:22.482Z,10.74
2023-04-09T12:15:51.637Z,10.81
2023-04-09T12:18:22.966Z,10.89
2023-04-09T12:20:51.180Z,10.97
2023-04-09T12:23:20.815Z,11.06
2023-04-09T12:25:49.255Z,11.10
2023-04-09T12:28:18.752Z,11.26
2023-04-09T12:30:49.221Z,11.35
2023-04-09T12:33:17.365Z,11.43
2023-04-09T12:35:46.454Z,11.54
2023-04-09T12:38:14.527Z,11.50
2023-04-09T12:40:44.408Z,11.69
2023-04-09T12:43:12.986Z,11.83
2023-04-09T12:45:41.241Z,11.93
2023-04-09T12:48:09.780Z,12.04
2023-04-09T12:50:37.866Z,12.13
2023-04-09T12:53:06.003Z,12.14
2023-04-09T12:55:34.359Z,12.12
2023-04-09T12:58:03.970Z,12.08
2023-04-09T13:00:33.510Z,12.02
2023-04-09T13:03:01.892Z,11.98
2023-04-09T13:05:31.623Z,11.86
2023-04-09T13:08:00.197Z,11.75
2023-04-09T13:10:28.574Z,11.67
2023-04-09T13:12:56.792Z,11.47
2023-04-09T13:15:26.451Z,11.47
2023-04-09T13:17:54.666Z,11.38
2023-04-09T13:20:23.480Z,11.39
2023-04-09T13:22:52.497Z,11.31
2023-04-09T13:25:20.616Z,11.23
2023-04-09T13:27:48.782Z,11.18
2023-04-09T13:30:16.799Z,11.14
2023-04-09T13:32:46.407Z,11.09
2023-04-09T13:35:14.727Z,10.97
2023-04-09T13:37:43.317Z,10.98
2023-04-09T13:40:11.776Z,10.96
2023-04-09T13:42:40.127Z,10.99
2023-04-09T13:45:08.544Z,11.01
2023-04-09T13:47:36.744Z,11.15
2023-04-09T13:50:10.306Z,11.27
2023-04-09T13:52:38.513Z,11.34
2023-04-09T13:55:07.692Z,11.42
2023-04-09T13:57:35.868Z,11.47
2023-04-09T14:00:05.506Z,11.55
2023-04-09T14:02:34.471Z,11.58
2023-04-09T14:05:03.820Z,11.62
2023-04-09T14:07:33.412Z,11.70
2023-04-09T14:10:01.426Z,11.76
2023-04-09T14:12:29.592Z,11.84
2023-04-09T14:14:58.135Z,11.88
2023-04-09T14:17:26.742Z,11.94
2023-04-09T14:19:54.784Z,11.99
2023-04-09T14:22:22.887Z,12.07
2023-04-09T14:24:53.382Z,12.22
2023-04-09T14:27:21.521Z,12.32
2023-04-09T14:29:49.750Z,12.39
2023-04-09T14:32:18.300Z,12.47
2023-04-09T14:34:46.410Z,12.59
2023-04-09T14:37:14.958Z,12.61
2023-04-09T14:39:43.374Z,12.58
2023-04-09T14:42:13.005Z,12.87
2023-04-09T14:44:41.590Z,12.94
2023-04-09T14:47:10.144Z,12.90
2023-04-09T14:49:38.293Z,12.96
2023-04-09T14:52:06.602Z,13.00
2023-04-09T14:54:34.923Z,12.92
2023-04-09T14:57:03.977Z,12.91
2023-04-09T14:59:33.433Z,12.80
2023-04-09T15:02:02.012Z,12.69
2023-04-09T15:04:30.547Z,12.62
2023-04-09T15:06:58.745Z,12.73
2023-04-09T15:09:27.215Z,12.68
2023-04-09T15:11:56.151Z,12.81
2023-04-09T15:14:24.961Z,12.75
2023-04-09T15:16:56.047Z,12.81
2023-04-09T15:19:24.134Z,12.83
2023-04-09T15:21:52.249Z,12.94
2023-04-09T15:24:20.625Z,12.97
2023-04-09T15:26:49.836Z,13.01
2023-04-09T15:29:18.074Z,12.94
2023-04-09T15:31:46.548Z,12.84
2023-04-09T15:34:16.090Z,12.89
2023-04-09T15:36:44.179Z,12.91
2023-04-09T15:39:12.459Z,12.83
2023-04-09T15:41:40.737Z,12.81
2023-04-09T15:44:09.251Z,12.71
2023-04-09T15:46:38.757Z,12.55
2023-04-09T15:49:06.991Z,12.54
2023-04-09T15:51:36.524Z,12.50
2023-04-09T15:54:04.745Z,12.31
2023-04-09T15:56:33.102Z,12.41
2023-04-09T15:59:02.295Z,12.28
2023-04-09T16:01:30.825Z,12.37
2023-04-09T16:03:59.299Z,12.46
2023-04-09T16:06:28.057Z,12.44
2023-04-09T16:08:57.794Z,12.50
2023-04-09T16:11:26.282Z,12.38
2023-04-09T16:13:56.156Z,12.39
2023-04-09T16:16:24.615Z,12.45
2023-04-09T16:18:53.169Z,12.29
2023-04-09T16:21:21.672Z,12.12
2023-04-09T16:23:50.133Z,11.90
2023-04-09T16:26:19.702Z,11.74
2023-04-09T16:28:47.711Z,11.57
2023-04-09T16:31:16.431Z,11.49
2023-04-09T16:33:44.523Z,11.38
2023-04-09T16:36:12.713Z,11.29
2023-04-09T16:38:41.707Z,11.20
2023-04-09T16:41:09.862Z,11.28
2023-04-09T16:43:39.322Z,11.22
2023-04-09T16:46:07.989Z,11.21
2023-04-09T16:48:37.298Z,11.21
2023-04-09T16:51:05.803Z,11.18
2023-04-09T16:53:33.996Z,11.25
2023-04-09T16:56:02.040Z,11.16
2023-04-09T16:58:30.059Z,11.22
2023-04-09T17:00:59.684Z,11.24
2023-04-09T17:03:27.973Z,11.20
2023-04-09T17:05:57.290Z,11.24
2023-04-09T17:08:25.465Z,11.08
2023-04-09T17:10:54.924Z,11.14
2023-04-09T17:13:23.039Z,11.16
2023-04-09T17:15:51.373Z,11.21
2023-04-09T17:18:21.524Z,11.13
2023-04-09T17:20:49.596Z,11.19
2023-04-09T17:23:17.665Z,11.15
2023-04-09T17:25:47.179Z,11.14
2023-04-09T17:28:16.964Z,11.08
2023-04-09T17:30:46.879Z,11.10
2023-04-09T17:33:15.272Z,11.06
2023-04-09T17:35:44.874Z,11.05
2023-04-09T17:38:17.282Z,11.02
2023-04-09T17:40:45.411Z,11.02
2023-04-09T17:43:14.328Z,11.05
2023-04-09T17:45:42.593Z,10.98
2023-04-09T17:48:11.021Z,10.98
2023-04-09T17:50:39.923Z,10.96
2023-04-09T17:53:09.879Z,10.89
2023-04-09T17:55:38.266Z,10.92
2023-04-09T17:58:06.416Z,10.87
2023-04-09T18:00:34.553Z,10.81
2023-04-09T18:03:03.054Z,10.82
2023-04-09T18:05:31.447Z,10.77
2023-04-09T18:07:59.791Z,10.74
2023-04-09T18:10:29.411Z,10.69
2023-04-09T18:12:57.586Z,10.64
2023-04-09T18:15:26.081Z,10.56
2023-04-09T18:17:54.457Z,10.44
2023-04-09T18:20:22.871Z,10.27
2023-04-09T18:22:52.203Z,10.21
2023-04-09T18:25:22.276Z,10.08
2023-04-09T18:27:51.681Z,9.97
2023-04-09T18:30:20.481Z,9.81
2023-04-09T18:32:49.268Z,9.73
2023-04-09T18:35:17.457Z,9.68
2023-04-09T18:37:45.922Z,9.60
2023-04-09T18:40:16.014Z,9.56
2023-04-09T18:42:44.095Z,9.51
2023-04-09T18:45:14.493Z,9.49
2023-04-09T18:47:43.089Z,9.44
2023-04-09T18:50:12.470Z,9.38
2023-04-09T18:52:40.499Z,9.43
2023-04-09T18:55:09.503Z,9.35
2023-04-09T18:57:37.779Z,9.35
2023-04-09T19:00:06.587Z,9.30
2023-04-09T19:02:36.246Z,9.29
2023-04-09T19:05:07.236Z,9.25
2023-04-09T19:07:36.207Z,9.24
2023-04-09T19:10:04.287Z,9.20
2023-04-09T19:12:32.794Z,9.14
2023-04-09T19:15:02.052Z,9.18
2023-04-09T19:17:30.427Z,9.15
2023-04-09T19:19:59.995Z,9.16
2023-04-09T19:22:28.242Z,9.18
2023-04-09T19:24:56.442Z,9.16
2023-04-09T19:27:24.898Z,9.13
2023-04-09T19:29:53.333Z,9.21
2023-04-09T19:32:21.477Z,9.19
2023-04-09T19:34:49.655Z,9.20
2023-04-09T19:37:19.956Z,9.19
2023-04-09T19:39:48.048Z,9.20
2023-04-09T19:42:16.435Z,9.21
2023-04-09T19:44:44.919Z,9.21
2023-04-09T19:47:13.173Z,9.22
2023-04-09T19:49:41.810Z,9.23
2023-04-09T19:52:09.811Z,9.25
2023-04-09T19:54:39.629Z,9.25
2023-04-09T19:57:08.208Z,9.25
2023-04-09T19:59:39.889Z,9.26
2023-04-09T20:02:08.730Z,9.28
2023-04-09T20:04:37.116Z,9.28
2023-04-09T20:07:05.528Z,9.30
2023-04-09T20:09:33.600Z,9.28
2023-04-09T20:12:07.041Z,9.30
2023-04-09T20:14:35.157Z,9.31
2023-04-09T20:17:03.322Z,9.35
2023-04-09T20:19:31.560Z,9.35
2023-04-09T20:22:00.437Z,9.34
2023-04-09T20:24:28.615Z,9.39
2023-04-09T20:26:59.556Z,9.40
2023-04-09T20:29:29.432Z,9.42
2023-04-09T20:31:57.829Z,9.41
2023-04-09T20:34:27.678Z,9.40
2023-04-09T20:36:56.720Z,9.43
2023-04-09T20:39:27.000Z,9.45
2023-04-09T20:41:56.740Z,9.43
2023-04-09T20:44:24.901Z,9.46
2023-04-09T20:46:54.687Z,9.48
2023-04-09T20:49:22.819Z,9.46
2023-04-09T20:51:52.026Z,9.50
2023-04-09T20:54:22.737Z,9.48
2023-04-09T20:56:51.380Z,9.48
2023-04-09T20:59:19.859Z,9.50
2023-04-09T21:01:48.468Z,9.52
2023-04-09T21:04:18.473Z,9.49
2023-04-09T21:06:47.933Z,9.52
2023-04-09T21:09:16.246Z,9.54
2023-04-09T21:11:44.664Z,9.54
2023-04-09T21:14:14.638Z,9.50
2023-04-09T21:16:42.798Z,9.52
2023-04-09T21:19:11.360Z,9.55
2023-04-09T21:21:41.229Z,9.53
2023-04-09T21:24:09.280Z,9.52
2023-04-09T21:26:49.890Z,9.55
2023-04-09T21:29:19.989Z,9.57
2023-04-09T21:31:49.040Z,9.53
2023-04-09T21:34:17.469Z,9.55
2023-04-09T21:36:47.677Z,9.56
2023-04-09T21:39:15.974Z,9.54
2023-04-09T21:41:44.249Z,9.57
2023-04-09T21:44:13.522Z,9.61
2023-04-09T21:46:43.083Z,9.64
2023-04-09T21:49:11.457Z,9.64
2023-04-09T21:51:39.671Z,9.62
2023-04-09T21:54:10.519Z,9.66
2023-04-09T21:56:38.717Z,9.63
2023-04-09T21:59:06.836Z,9.69
2023-04-09T22:01:35.452Z,9.71
2023-04-09T22:04:04.386Z,9.70
2023-04-09T22:06:32.828Z,9.66
2023-04-09T22:09:01.982Z,9.64
2023-04-09T22:11:34.222Z,9.66
2023-04-09T22:14:02.464Z,9.66
2023-04-09T22:16:31.006Z,9.60
2023-04-09T22:18:59.264Z,9.63
2023-04-09T22:21:27.807Z,9.52
2023-04-09T22:23:56.022Z,9.45
2023-04-09T22:26:24.206Z,9.40
2023-04-09T22:28:53.920Z,9.39
2023-04-09T22:31:22.960Z,9.36
2023-04-09T22:33:51.360Z,9.23
2023-04-09T22:36:19.925Z,9.15
2023-04-09T22:38:48.174Z,9.11
2023-04-09T22:41:17.744Z,9.03
2023-04-09T22:43:45.992Z,8.95
2023-04-09T22:46:16.457Z,8.89
2023-04-09T22:48:46.640Z,8.81
2023-04-09T22:51:15.632Z,8.72
2023-04-09T22:53:43.780Z,8.68
2023-04-09T22:56:12.744Z,8.63
2023-04-09T22:58:41.190Z,8.54
2023-04-09T23:01:09.434Z,8.50
2023-04-09T23:03:39.406Z,8.42
2023-04-09T23:06:07.672Z,8.35
2023-04-09T23:08:35.704Z,8.29
2023-04-09T23:11:05.399Z,8.24
2023-04-09T23:13:33.888Z,8.16
2023-04-09T23:16:02.260Z,8.08
2023-04-09T23:18:30.347Z,8.05
2023-04-09T23:20:59.774Z,8.01
2023-04-09T23:23:28.091Z,7.99
2023-04-09T23:25:56.760Z,7.92
2023-04-09T23:28:25.190Z,7.87
2023-04-09T23:30:53.307Z,7.82
2023-04-09T23:33:21.758Z,7.81
2023-04-09T23:35:49.876Z,7.74
2023-04-09T23:38:19.644Z,7.71
2023-04-09T23:40:49.543Z,7.67
2023-04-09T23:43:17.592Z,7.61
2023-04-09T23:45:45.835Z,7.59
2023-04-09T23:48:13.915Z,7.56
2023-04-09T23:50:42.807Z,7.55
2023-04-09T23:53:11.622Z,7.50
2023-04-09T23:55:41.730Z,7.42
2023-04-09T23:58:10.041Z,7.40
